Time;durP1;ratioP1;P1;durP2;ratioP2;P2;SDS_P1;SDS_P2;PMS_P1;PMS_P2;Temp;Humidity;BMP_temperature;BMP_pressure;BME280_temperature;BME280_humidity;BME280_pressure;Samples;Min_cycle;Max_cycle;Signal;HPM_P1;HPM_P2
2022/05/18 00:00:31;;;;;;;24.15;10.70;;;;;;;14.27;100.00;101834.34;5283598;28;20023;-69
2022/05/18 00:03:06;;;;;;;20.27;11.18;;;;;;;14.29;100.00;101836.88;5279869;28;20023;-70
2022/05/18 00:05:38;;;;;;;19.10;9.95;;;;;;;14.28;100.00;101830.63;5286253;28;20051;-71
2022/05/18 00:08:10;;;;;;;19.98;11.10;;;;;;;14.27;100.00;101841.63;5277228;28;20073;-70
2022/05/18 00:10:49;;;;;;;23.33;11.52;;;;;;;14.20;100.00;101831.47;5276497;28;20086;-69
2022/05/18 00:13:20;;;;;;;18.15;10.35;;;;;;;14.15;100.00;101831.09;5277520;28;20477;-70
2022/05/18 00:15:51;;;;;;;16.33;9.57;;;;;;;14.10;100.00;101825.38;5290303;28;20019;-69
2022/05/18 00:18:21;;;;;;;19.45;11.27;;;;;;;14.05;100.00;101827.72;5274100;28;20024;-70
2022/05/18 00:20:52;;;;;;;19.00;8.55;;;;;;;14.00;100.00;101839.00;5269747;28;20114;-70
2022/05/18 00:23:22;;;;;;;20.35;9.07;;;;;;;13.98;100.00;101834.78;5269698;28;20028;-70
2022/05/18 00:25:53;;;;;;;14.23;8.90;;;;;;;13.98;100.00;101837.50;5280214;28;20078;-70
2022/05/18 00:28:23;;;;;;;14.90;8.43;;;;;;;14.00;100.00;101840.84;5276504;28;20020;-70
2022/05/18 00:30:54;;;;;;;12.65;9.18;;;;;;;14.03;100.00;101843.25;5278323;27;20449;-70
2022/05/18 00:33:26;;;;;;;18.88;9.30;;;;;;;14.06;100.00;101852.88;5289044;28;20106;-70
2022/05/18 00:35:57;;;;;;;27.67;10.38;;;;;;;14.06;100.00;101845.63;5276704;28;20392;-70
2022/05/18 00:38:28;;;;;;;23.85;11.13;;;;;;;14.02;100.00;101846.94;5268928;28;20024;-70
2022/05/18 00:40:58;;;;;;;18.63;9.85;;;;;;;13.95;100.00;101843.19;5282824;28;20556;-70
2022/05/18 00:43:29;;;;;;;17.33;10.00;;;;;;;13.85;100.00;101839.81;5277024;28;20062;-70
2022/05/18 00:46:03;;;;;;;23.83;11.05;;;;;;;13.74;100.00;101835.56;5289929;28;20055;-71
2022/05/18 00:48:34;;;;;;;19.92;10.55;;;;;;;13.68;100.00;101831.66;5290416;28;20369;-71
2022/05/18 00:51:09;;;;;;;20.05;10.70;;;;;;;13.61;100.00;101838.72;5289813;28;20020;-70
2022/05/18 00:53:55;;;;;;;;;;;;;;;13.57;100.00;101844.59;5277892;28;20544;-70
2022/05/18 00:56:32;;;;;;;15.27;9.38;;;;;;;13.50;100.00;101839.00;5268853;28;20276;-69
2022/05/18 00:59:08;;;;;;;16.10;9.65;;;;;;;13.46;100.00;101841.19;5285940;28;20026;-69
2022/05/18 01:01:39;;;;;;;16.33;8.27;;;;;;;13.39;100.00;101837.41;5290154;28;20102;-69
2022/05/18 01:04:13;;;;;;;23.80;9.77;;;;;;;13.32;100.00;101836.38;5284716;28;20058;-69
2022/05/18 01:06:57;;;;;;;19.77;9.07;;;;;;;13.32;100.00;101839.06;5290341;27;20058;-69
2022/05/18 01:09:47;;;;;;;16.17;9.10;;;;;;;13.36;100.00;101836.91;5278254;28;20498;-69
2022/05/18 01:12:20;;;;;;;18.55;8.50;;;;;;;13.40;100.00;101838.25;5289561;28;20027;-70
2022/05/18 01:15:08;;;;;;;14.18;8.23;;;;;;;13.46;100.00;101834.94;5283306;28;20019;-69
2022/05/18 01:17:56;;;;;;;16.98;8.05;;;;;;;13.51;100.00;101840.69;5268643;28;20027;-69
2022/05/18 01:20:32;;;;;;;14.00;7.75;;;;;;;13.53;100.00;101835.13;5268553;28;20031;-69
2022/05/18 01:23:29;;;;;;;18.83;7.82;;;;;;;13.57;100.00;101834.66;5281899;28;20106;-70
2022/05/18 01:26:17;;;;;;;12.68;7.43;;;;;;;13.61;100.00;101830.63;5279914;28;20038;-70
2022/05/18 01:28:56;;;;;;;13.25;7.05;;;;;;;13.63;100.00;101820.53;5268331;28;20434;-70
2022/05/18 01:31:45;;;;;;;14.93;7.68;;;;;;;13.70;100.00;101818.88;5284527;28;20285;-69
2022/05/18 01:34:19;;;;;;;17.48;7.30;;;;;;;13.76;100.00;101822.78;5276525;28;20098;-70
2022/05/18 01:36:50;;;;;;;18.52;8.05;;;;;;;13.84;100.00;101824.63;5268168;28;20038;-69
2022/05/18 01:39:46;;;;;;;12.95;6.72;;;;;;;13.91;100.00;101817.59;5269134;28;20027;-70
2022/05/18 01:42:27;;;;;;;15.90;7.70;;;;;;;13.96;100.00;101817.94;5289426;28;20019;-69
2022/05/18 01:44:58;;;;;;;15.30;7.13;;;;;;;13.99;100.00;101826.53;5288991;28;20043;-69
2022/05/18 01:47:48;;;;;;;16.40;8.65;;;;;;;14.04;100.00;101822.50;5289437;27;20058;-69
2022/05/18 01:50:26;;;;;;;18.10;8.57;;;;;;;14.06;100.00;101825.91;5277763;28;20028;-70
2022/05/18 01:52:56;;;;;;;22.27;8.75;;;;;;;14.05;100.00;101827.72;5267923;28;20374;-69
2022/05/18 01:55:27;;;;;;;16.38;8.13;;;;;;;14.02;100.00;101833.47;5280187;28;20319;-69
2022/05/18 01:57:58;;;;;;;12.32;7.70;;;;;;;14.03;100.00;101837.00;5275416;28;20484;-70
2022/05/18 02:00:35;;;;;;;12.27;8.05;;;;;;;14.05;100.00;101838.50;5272541;28;20027;-70
2022/05/18 02:03:06;;;;;;;13.02;6.95;;;;;;;14.09;100.00;101845.28;5267561;28;20072;-70
2022/05/18 02:05:37;;;;;;;17.33;8.32;;;;;;;14.16;100.00;101840.91;5281253;28;20030;-70
2022/05/18 02:08:09;;;;;;;11.82;7.38;;;;;;;14.19;100.00;101837.03;5276248;28;20024;-70
2022/05/18 02:10:39;;;;;;;17.95;7.88;;;;;;;14.21;100.00;101843.97;5285683;28;20063;-70
2022/05/18 02:13:10;;;;;;;12.73;6.20;;;;;;;14.20;100.00;101839.56;5276638;28;20111;-70
2022/05/18 02:15:41;;;;;;;12.23;6.80;;;;;;;14.19;100.00;101848.66;5275180;28;20024;-69
2022/05/18 02:18:12;;;;;;;15.23;7.70;;;;;;;14.19;100.00;101837.88;5281087;28;20377;-70
2022/05/18 02:20:43;;;;;;;14.20;6.68;;;;;;;14.24;100.00;101853.56;5288358;28;20092;-70
2022/05/18 02:23:13;;;;;;;13.18;6.45;;;;;;;14.25;100.00;101849.84;5286205;28;20051;-70
2022/05/18 02:25:44;;;;;;;16.63;7.03;;;;;;;14.27;100.00;101850.56;5276191;28;20023;-71
2022/05/18 02:28:14;;;;;;;18.27;7.40;;;;;;;14.23;100.00;101852.72;5285217;28;20819;-70
2022/05/18 02:30:45;;;;;;;20.77;7.18;;;;;;;14.16;100.00;101849.00;5267556;28;20042;-71
2022/05/18 02:33:15;;;;;;;15.18;7.03;;;;;;;14.17;100.00;101853.41;5284376;28;20084;-70
2022/05/18 02:35:46;;;;;;;11.18;5.50;;;;;;;14.24;100.00;101857.09;5287676;28;20093;-71
2022/05/18 02:38:17;;;;;;;14.15;6.80;;;;;;;14.31;100.00;101859.13;5280392;28;20028;-71
2022/05/18 02:40:47;;;;;;;11.40;6.70;;;;;;;14.32;100.00;101856.28;5279956;28;20024;-71
2022/05/18 02:43:18;;;;;;;16.02;6.88;;;;;;;14.49;100.00;101862.59;5267137;28;20024;-72
2022/05/18 02:45:49;;;;;;;16.95;6.47;;;;;;;14.56;100.00;101869.03;5267618;28;20052;-71
2022/05/18 02:48:19;;;;;;;12.38;6.68;;;;;;;14.58;100.00;101864.28;5287594;28;20016;-70
2022/05/18 02:50:50;;;;;;;13.98;6.38;;;;;;;14.52;100.00;101866.81;5287604;28;20428;-69
2022/05/18 02:53:21;;;;;;;11.40;6.82;;;;;;;14.45;100.00;101867.44;5276815;28;20386;-69
2022/05/18 02:58:58;;;;;;;11.32;7.00;;;;;;;14.43;100.00;101850.56;5279749;28;20028;-69
2022/05/18 03:01:29;;;;;;;10.88;5.93;;;;;;;14.45;100.00;101861.19;5277439;28;20023;-69
2022/05/18 03:03:59;;;;;;;9.43;5.70;;;;;;;14.51;100.00;101863.28;5283945;28;20023;-69
2022/05/18 03:06:29;;;;;;;16.55;5.97;;;;;;;14.58;100.00;101858.03;5281233;28;20380;-69
2022/05/18 03:09:00;;;;;;;13.30;5.93;;;;;;;14.62;100.00;101854.84;5285866;28;20115;-69
2022/05/18 03:11:30;;;;;;;9.75;5.35;;;;;;;14.68;100.00;101861.41;5274781;28;20016;-69
2022/05/18 03:14:01;;;;;;;11.82;5.90;;;;;;;14.74;100.00;101863.44;5266642;28;20054;-69
2022/05/18 03:16:32;;;;;;;10.35;6.30;;;;;;;14.85;100.00;101863.09;5272805;28;20024;-69
2022/05/18 03:19:02;;;;;;;9.60;6.03;;;;;;;14.90;100.00;101881.50;5274352;28;20039;-70
2022/05/18 03:24:21;;;;;;;13.25;5.55;;;;;;;14.68;100.00;101867.66;5278050;28;20019;-69
2022/05/18 03:26:52;;;;;;;11.00;5.93;;;;;;;14.59;100.00;101879.47;5268171;28;20032;-69
2022/05/18 03:29:23;;;;;;;8.20;5.47;;;;;;;14.53;100.00;101880.16;5266177;28;20019;-69
2022/05/18 03:31:54;;;;;;;12.48;6.53;;;;;;;14.51;100.00;101884.88;5265751;28;20036;-69
2022/05/18 03:34:24;;;;;;;16.23;6.00;;;;;;;14.49;100.00;101881.47;5280456;28;20019;-69
2022/05/18 03:36:55;;;;;;;12.82;6.40;;;;;;;14.49;100.00;101885.03;5279298;28;20028;-69
2022/05/18 03:39:27;;;;;;;9.45;5.95;;;;;;;14.50;100.00;101886.69;5268335;28;20016;-69
2022/05/18 03:41:57;;;;;;;11.50;6.35;;;;;;;14.53;100.00;101890.09;5287086;28;20024;-69
2022/05/18 03:44:27;;;;;;;17.35;7.50;;;;;;;14.54;100.00;101892.63;5272840;28;20489;-69
2022/05/18 03:46:58;;;;;;;12.02;7.00;;;;;;;14.54;100.00;101892.63;5276526;28;20047;-69
2022/05/18 03:49:29;;;;;;;11.00;7.30;;;;;;;14.55;100.00;101888.06;5265963;28;20027;-69
2022/05/18 03:52:00;;;;;;;16.67;6.40;;;;;;;14.53;100.00;101890.94;5277547;28;20500;-69
2022/05/18 03:54:31;;;;;;;13.02;6.72;;;;;;;14.54;100.00;101898.03;5285584;28;20024;-69
2022/05/18 03:57:02;;;;;;;12.18;6.93;;;;;;;14.56;100.00;101905.94;5273416;28;20032;-69
2022/05/18 03:59:32;;;;;;;13.95;7.40;;;;;;;14.59;100.00;101903.78;5279449;28;20501;-68
2022/05/18 04:02:03;;;;;;;17.25;7.53;;;;;;;14.63;100.00;101896.19;5266443;28;20103;-69
2022/05/18 04:04:33;;;;;;;12.13;7.57;;;;;;;14.66;100.00;101902.09;5278819;28;20020;-69
2022/05/18 04:07:04;;;;;;;16.90;7.57;;;;;;;14.71;100.00;101899.75;5276183;28;20384;-69
2022/05/18 04:09:34;;;;;;;15.32;6.80;;;;;;;14.75;100.00;101900.22;5286798;28;20019;-69
2022/05/18 04:12:05;;;;;;;13.57;6.35;;;;;;;14.77;100.00;101906.34;5269951;28;20099;-69
2022/05/18 04:14:36;;;;;;;12.75;5.22;;;;;;;14.81;100.00;101912.22;5276244;28;20016;-69
2022/05/18 04:17:06;;;;;;;12.38;5.63;;;;;;;14.86;100.00;101905.31;5273776;28;20031;-69
2022/05/18 04:19:37;;;;;;;13.55;5.70;;;;;;;14.92;100.00;101909.22;5290823;28;20026;-69
2022/05/18 04:22:07;;;;;;;11.27;5.55;;;;;;;15.02;100.00;101907.19;5270568;28;20104;-68
2022/05/18 04:24:38;;;;;;;16.17;5.85;;;;;;;15.09;100.00;101908.19;5269516;28;20020;-69
2022/05/18 04:27:08;;;;;;;14.98;5.85;;;;;;;15.14;100.00;101919.31;5283479;28;20058;-69
2022/05/18 04:29:39;;;;;;;8.38;5.97;;;;;;;15.19;100.00;101924.22;5271211;28;20016;-69
2022/05/18 04:32:10;;;;;;;9.18;5.38;;;;;;;15.23;100.00;101928.28;5278981;28;20396;-69
2022/05/18 04:34:41;;;;;;;11.80;4.80;;;;;;;15.27;100.00;101927.75;5273740;27;20477;-68
2022/05/18 04:37:11;;;;;;;10.35;5.45;;;;;;;15.34;100.00;101929.78;5280071;28;20176;-69
2022/05/18 04:39:42;;;;;;;10.80;5.50;;;;;;;15.39;100.00;101922.84;5272161;28;20103;-69
2022/05/18 04:42:13;;;;;;;12.45;5.10;;;;;;;15.46;100.00;101931.97;5269461;28;20027;-69
2022/05/18 04:44:44;;;;;;;9.35;5.20;;;;;;;15.52;100.00;101931.28;5288021;28;20023;-68
2022/05/18 04:47:14;;;;;;;9.25;5.53;;;;;;;15.62;100.00;101941.91;5277362;28;20024;-69
2022/05/18 04:49:45;;;;;;;6.85;3.67;;;;;;;15.71;100.00;101940.91;5269308;28;20016;-69
2022/05/18 04:52:15;;;;;;;7.93;3.90;;;;;;;15.89;100.00;101954.19;5282428;28;20022;-69
2022/05/18 04:54:46;;;;;;;7.45;3.83;;;;;;;16.11;100.00;101960.69;5268811;28;20016;-69
2022/05/18 04:57:18;;;;;;;13.73;5.18;;;;;;;16.27;100.00;101971.47;5270751;28;20037;-69
2022/05/18 04:59:49;;;;;;;11.38;4.97;;;;;;;16.44;100.00;101979.50;5280253;28;20020;-69
2022/05/18 05:02:20;;;;;;;9.05;3.95;;;;;;;16.54;100.00;101986.38;5282449;28;20385;-69
2022/05/18 05:04:50;;;;;;;12.20;5.03;;;;;;;16.68;100.00;101979.38;5279183;28;20051;-69
2022/05/18 05:07:21;;;;;;;14.43;4.32;;;;;;;16.79;100.00;101981.69;5290063;28;20366;-69
2022/05/18 05:09:51;;;;;;;12.57;4.78;;;;;;;16.88;100.00;101992.50;5289526;28;20446;-69
2022/05/18 05:12:22;;;;;;;7.20;4.60;;;;;;;16.96;100.00;101992.41;5270570;27;20028;-69
2022/05/18 05:14:53;;;;;;;13.88;5.13;;;;;;;17.04;100.00;101990.50;5276037;28;20024;-69
2022/05/18 05:17:25;;;;;;;14.55;5.40;;;;;;;17.14;100.00;101995.66;5282671;28;20097;-69
2022/05/18 05:19:57;;;;;;;14.05;5.18;;;;;;;17.22;100.00;101997.47;5268222;28;20027;-69
2022/05/18 05:22:28;;;;;;;14.48;4.70;;;;;;;17.27;100.00;101992.31;5267924;28;20405;-69
2022/05/18 05:24:58;;;;;;;10.73;4.07;;;;;;;17.36;100.00;101996.66;5270097;28;20031;-69
2022/05/18 05:27:29;;;;;;;14.88;4.03;;;;;;;17.44;100.00;101998.47;5278470;28;20027;-69
2022/05/18 05:29:59;;;;;;;11.10;4.85;;;;;;;17.52;100.00;102003.81;5271210;28;20084;-69
2022/05/18 05:32:30;;;;;;;14.23;4.35;;;;;;;17.59;100.00;102002.06;5278739;28;20032;-69
2022/05/18 05:35:01;;;;;;;11.18;4.03;;;;;;;17.66;100.00;102011.13;5285561;28;20104;-69
2022/05/18 05:37:31;;;;;;;10.38;4.40;;;;;;;17.72;100.00;102012.25;5287969;28;20376;-69
2022/05/18 05:40:03;;;;;;;12.88;4.22;;;;;;;17.80;100.00;102009.50;5268126;28;20020;-69
2022/05/18 05:42:35;;;;;;;15.82;4.72;;;;;;;17.88;100.00;102014.88;5268661;28;20504;-69
2022/05/18 05:45:06;;;;;;;13.25;4.90;;;;;;;17.94;100.00;102021.41;5280673;28;20495;-69
2022/05/18 05:47:36;;;;;;;9.18;4.20;;;;;;;18.00;100.00;102031.53;5281523;28;20057;-69
2022/05/18 05:50:08;;;;;;;9.10;4.43;;;;;;;18.04;100.00;102028.25;5267788;28;20055;-69
2022/05/18 05:52:38;;;;;;;16.13;4.50;;;;;;;18.08;100.00;102028.72;5284813;28;20494;-69
2022/05/18 05:55:09;;;;;;;7.78;4.32;;;;;;;18.09;100.00;102024.97;5277341;28;20118;-69
2022/05/18 05:57:39;;;;;;;9.38;4.97;;;;;;;18.13;100.00;102025.47;5286195;28;20031;-69
2022/05/18 06:00:10;;;;;;;14.18;4.70;;;;;;;18.10;100.00;102027.50;5288323;28;20103;-69
2022/05/18 06:02:44;;;;;;;23.30;5.32;;;;;;;18.15;100.00;102031.53;5268623;28;20038;-69
2022/05/18 06:05:15;;;;;;;12.50;4.40;;;;;;;18.18;100.00;102029.28;5280830;28;20102;-69
2022/05/18 06:07:46;;;;;;;9.85;4.40;;;;;;;18.23;100.00;102042.31;5283625;28;20031;-69
2022/05/18 06:10:16;;;;;;;14.63;4.80;;;;;;;18.34;100.00;102044.53;5272723;28;20020;-69
2022/05/18 06:12:47;;;;;;;9.48;4.20;;;;;;;18.51;100.00;102035.16;5267407;28;20035;-69
2022/05/18 06:15:17;;;;;;;11.60;4.75;;;;;;;19.00;100.00;102045.38;5280014;28;20035;-69
2022/05/18 06:17:48;;;;;;;12.82;4.60;;;;;;;20.06;100.00;102043.56;5267271;28;20015;-69
2022/05/18 06:20:18;;;;;;;11.98;3.90;;;;;;;21.01;100.00;102041.06;5271118;28;20129;-70
2022/05/18 06:22:48;;;;;;;13.85;4.15;;;;;;;20.99;100.00;102041.28;5275973;28;20036;-70
2022/05/18 06:25:19;;;;;;;12.25;4.55;;;;;;;21.33;100.00;102051.22;5280388;28;20024;-70
2022/05/18 06:27:50;;;;;;;10.65;4.20;;;;;;;21.41;100.00;102058.38;5266704;28;20028;-69
2022/05/18 06:30:21;;;;;;;24.70;5.20;;;;;;;21.19;100.00;102058.53;5276334;28;20020;-70
2022/05/18 06:32:53;;;;;;;13.07;4.85;;;;;;;20.96;100.00;102055.34;5266884;28;20031;-69
2022/05/18 06:35:24;;;;;;;11.55;5.72;;;;;;;20.84;100.00;102059.72;5266335;28;20385;-70
2022/05/18 06:37:54;;;;;;;13.65;6.00;;;;;;;20.73;100.00;102063.84;5266883;28;20028;-70
2022/05/18 06:41:21;;;;;;;13.02;5.68;;;;;;;20.62;100.00;102056.25;5276241;28;20030;-70
2022/05/18 06:43:17;;;;;;;15.85;7.18;;;;;;;20.56;100.00;102067.97;5273773;28;20488;-70
2022/05/18 06:45:48;;;;;;;12.65;6.10;;;;;;;20.55;100.00;102069.03;5272757;28;20027;-69
2022/05/18 06:48:19;;;;;;;13.77;6.20;;;;;;;20.44;100.00;102073.16;5275131;28;20033;-69
2022/05/18 06:50:49;;;;;;;21.85;7.18;;;;;;;20.49;100.00;102072.56;5273628;28;20035;-70
2022/05/18 06:53:20;;;;;;;15.63;6.30;;;;;;;20.49;100.00;102078.88;5287719;28;20031;-70
2022/05/18 06:55:50;;;;;;;11.63;6.03;;;;;;;20.58;100.00;102079.50;5270320;28;20166;-69
2022/05/18 06:58:21;;;;;;;15.73;5.80;;;;;;;20.69;100.00;102079.78;5276544;28;20027;-70
2022/05/18 07:00:51;;;;;;;11.07;5.57;;;;;;;20.95;100.00;102084.50;5268098;28;20069;-69
2022/05/18 07:03:22;;;;;;;14.52;6.22;;;;;;;21.50;100.00;102078.97;5266648;28;20027;-70
2022/05/18 07:05:52;;;;;;;15.80;5.82;;;;;;;22.11;100.00;102083.38;5285201;28;20106;-70
2022/05/18 07:08:23;;;;;;;12.63;5.47;;;;;;;23.04;100.00;102078.44;5287315;28;20019;-70
2022/05/18 07:10:53;;;;;;;11.82;5.53;;;;;;;22.93;100.00;102087.34;5279888;28;20035;-70
2022/05/18 07:13:23;;;;;;;8.52;5.70;;;;;;;22.74;100.00;102089.94;5266292;28;20078;-69
2022/05/18 07:15:54;;;;;;;12.68;5.75;;;;;;;22.32;100.00;102093.22;5274013;28;20431;-70
2022/05/18 07:18:29;;;;;;;15.27;6.13;;;;;;;21.95;100.00;102079.19;5266000;28;20114;-69
2022/05/18 07:21:02;;;;;;;;;;;;;;;21.91;100.00;102084.22;5276551;28;20019;-70
2022/05/18 07:23:33;;;;;;;13.13;6.43;;;;;;;21.87;100.00;102084.84;5286864;28;19911;-70
2022/05/18 07:26:03;;;;;;;15.48;5.32;;;;;;;22.01;100.00;102075.59;5287063;28;20380;-70
2022/05/18 07:28:34;;;;;;;15.43;6.68;;;;;;;22.14;100.00;102082.94;5267502;28;20028;-70
2022/05/18 07:31:06;;;;;;;14.05;6.28;;;;;;;22.68;100.00;102090.78;5265985;28;20016;-71
2022/05/18 07:33:36;;;;;;;11.70;5.30;;;;;;;23.50;100.00;102091.84;5272495;28;20024;-70
2022/05/18 07:36:07;;;;;;;13.00;5.22;;;;;;;23.59;100.00;102103.34;5285480;28;20019;-70
2022/05/18 07:38:40;;;;;;;10.50;5.18;;;;;;;23.90;100.00;102107.13;5265663;28;20119;-70
2022/05/18 07:41:14;;;;;;;10.65;5.13;;;;;;;23.91;100.00;102111.56;5268572;28;20028;-70
2022/05/18 07:43:44;;;;;;;14.23;5.80;;;;;;;24.16;100.00;102106.03;5276225;28;20043;-70
2022/05/18 07:46:15;;;;;;;9.68;5.07;;;;;;;24.56;100.00;102101.00;5265214;28;20020;-70
2022/05/18 07:48:45;;;;;;;11.82;5.05;;;;;;;24.53;100.00;102098.69;5277999;28;20043;-70
2022/05/18 07:51:16;;;;;;;10.65;5.35;;;;;;;24.71;100.00;102112.41;5272657;28;20020;-70
2022/05/18 07:53:46;;;;;;;14.50;5.65;;;;;;;24.63;100.00;102117.38;5276987;28;20028;-70
2022/05/18 07:56:17;;;;;;;8.93;4.95;;;;;;;24.77;100.00;102113.41;5269844;28;20389;-70
2022/05/18 07:58:47;;;;;;;12.70;4.93;;;;;;;25.24;100.00;102114.47;5269498;28;20040;-70
2022/05/18 08:01:18;;;;;;;9.30;4.82;;;;;;;25.71;100.00;102127.50;5278609;28;20123;-70
2022/05/18 08:03:48;;;;;;;11.05;5.10;;;;;;;25.91;100.00;102117.06;5274797;28;20405;-70
2022/05/18 08:06:19;;;;;;;12.25;5.18;;;;;;;26.00;100.00;102117.50;5273826;28;20057;-70
2022/05/18 08:08:49;;;;;;;9.52;5.07;;;;;;;25.98;100.00;102115.00;5273962;28;20020;-71
2022/05/18 08:16:57;;;;;;;5.10;3.40;;;;;;;27.14;97.22;102131.59;5287277;28;20024;-71
2022/05/18 08:19:29;;;;;;;9.40;3.90;;;;;;;27.46;100.00;102126.44;5280876;28;20027;-71
2022/05/18 08:21:59;;;;;;;8.25;4.20;;;;;;;27.78;93.19;102126.72;5285463;28;20524;-71
2022/05/18 08:24:30;;;;;;;7.45;3.33;;;;;;;28.31;80.75;102119.78;5269433;28;20055;-71
2022/05/18 08:27:00;;;;;;;4.55;2.60;;;;;;;27.98;85.57;102119.84;5283189;28;20046;-71
2022/05/18 08:29:31;;;;;;;9.57;3.47;;;;;;;28.00;85.42;102128.72;5269852;28;20465;-71
2022/05/18 08:32:02;;;;;;;6.20;3.05;;;;;;;27.96;89.98;102130.28;5283119;28;20091;-71
2022/05/18 08:34:33;;;;;;;6.32;3.13;;;;;;;28.17;88.98;102131.47;5269061;28;20028;-71
2022/05/18 08:37:04;;;;;;;6.35;3.33;;;;;;;28.39;83.59;102121.31;5278027;28;20024;-71
2022/05/18 08:39:35;;;;;;;6.28;2.60;;;;;;;28.41;84.25;102116.38;5276822;28;20039;-71
2022/05/18 08:42:06;;;;;;;8.95;3.40;;;;;;;28.40;82.24;102122.97;5280633;28;20103;-71
2022/05/18 08:44:36;;;;;;;5.97;2.78;;;;;;;29.27;77.06;102132.34;5273218;28;20119;-71
2022/05/18 08:47:16;;;;;;;4.90;2.65;;;;;;;28.93;79.53;102124.22;5279054;28;20081;-72
2022/05/18 08:49:47;;;;;;;6.85;2.72;;;;;;;29.16;74.50;102123.94;5281484;28;20024;-71
2022/05/18 08:52:48;;;;;;;6.65;2.50;;;;;;;29.02;72.70;102121.84;5283215;28;20027;-71
2022/05/18 08:55:36;;;;;;;4.15;2.47;;;;;;;28.41;77.17;102119.13;5277518;27;20032;-71
2022/05/18 08:58:29;;;;;;;5.50;1.95;;;;;;;28.54;76.96;102121.53;5277433;28;20061;-71
2022/05/18 09:01:18;;;;;;;3.35;1.55;;;;;;;28.32;75.94;102121.47;5275743;27;20027;-71
2022/05/18 09:03:56;;;;;;;3.90;1.63;;;;;;;28.81;70.33;102129.84;5273900;28;20032;-71
2022/05/18 09:06:45;;;;;;;3.03;1.10;;;;;;;29.00;65.00;102133.16;5274062;28;20369;-71
2022/05/18 09:12:21;;;;;;;3.90;1.40;;;;;;;29.06;65.41;102128.53;5273195;28;20080;-71
2022/05/18 09:14:52;;;;;;;5.72;1.90;;;;;;;29.12;67.10;102125.56;5284769;28;20103;-71
2022/05/18 09:17:31;;;;;;;6.78;2.17;;;;;;;29.46;63.88;102130.03;5275806;28;20020;-71
2022/05/18 09:20:15;;;;;;;6.40;2.05;;;;;;;29.18;66.49;102128.38;5274445;28;20043;-71
2022/05/18 09:23:21;;;;;;;4.17;2.00;;;;;;;29.63;65.36;102128.03;5268662;28;20389;-71
2022/05/18 09:26:27;;;;;;;2.55;1.58;;;;;;;29.52;60.31;102118.78;5277220;28;20046;-71
2022/05/18 09:29:26;;;;;;;4.55;1.70;;;;;;;29.25;64.17;102118.78;5281424;28;20489;-71
2022/05/18 09:31:58;;;;;;;5.07;1.75;;;;;;;29.35;63.58;102129.94;5287384;28;20028;-71
2022/05/18 09:34:51;;;;;;;4.65;2.08;;;;;;;29.16;67.00;102121.16;5288730;28;20032;-71
2022/05/18 09:37:41;;;;;;;6.13;2.05;;;;;;;29.31;64.99;102123.25;5268092;28;20094;-71
2022/05/18 09:40:21;;;;;;;6.05;1.85;;;;;;;29.58;65.46;102116.94;5276448;28;20035;-71
2022/05/18 09:43:12;;;;;;;6.45;2.10;;;;;;;29.62;62.25;102115.28;5285422;28;20107;-71
2022/05/18 09:45:47;;;;;;;3.97;1.83;;;;;;;29.41;63.78;102117.00;5281382;28;20043;-71
2022/05/18 09:48:28;;;;;;;7.80;1.88;;;;;;;29.50;60.34;102115.44;5266885;28;20028;-71
2022/05/18 09:50:59;;;;;;;4.10;1.58;;;;;;;29.62;58.57;102112.50;5281635;28;20416;-71
2022/05/18 09:53:30;;;;;;;3.47;1.90;;;;;;;29.20;58.67;102123.44;5278757;28;20201;-71
2022/05/18 09:56:01;;;;;;;3.03;1.55;;;;;;;28.56;59.23;102110.22;5270221;28;20389;-71
2022/05/18 09:58:36;;;;;;;6.15;1.75;;;;;;;28.19;62.78;102113.56;5267666;28;20028;-71
2022/05/18 10:09:51;;;;;;;2.28;1.30;;;;;;;28.36;61.89;102108.84;5277509;28;20540;-71
2022/05/18 10:12:30;;;;;;;5.43;1.38;;;;;;;28.61;60.33;102113.88;5281111;28;20528;-71
2022/05/18 10:15:07;;;;;;;6.63;1.60;;;;;;;28.68;61.40;102110.09;5274138;28;20020;-71
2022/05/18 10:17:46;;;;;;;6.13;1.30;;;;;;;28.55;62.12;102120.44;5267323;28;20030;-71
2022/05/18 10:20:36;;;;;;;3.53;1.42;;;;;;;28.41;60.39;102115.53;5280374;28;20531;-71
2022/05/18 10:23:30;;;;;;;3.20;1.58;;;;;;;27.68;67.81;102109.16;5267375;28;20031;-71
2022/05/18 10:26:03;;;;;;;4.25;1.23;;;;;;;27.75;70.67;102107.91;5267085;28;20047;-71
2022/05/18 10:28:33;;;;;;;3.58;1.15;;;;;;;28.59;63.19;102112.47;5285933;28;20027;-71
2022/05/18 10:31:07;;;;;;;6.05;1.50;;;;;;;28.60;60.60;102109.44;5288218;28;20023;-71
2022/05/18 10:33:40;;;;;;;5.82;1.73;;;;;;;28.16;66.18;102111.28;5274474;28;20031;-71
2022/05/18 10:36:14;;;;;;;4.30;1.70;;;;;;;28.52;61.37;102100.81;5287781;28;20028;-71
2022/05/18 10:39:04;;;;;;;8.15;1.80;;;;;;;28.41;61.70;102101.72;5278241;28;20032;-71
2022/05/18 10:41:42;;;;;;;4.00;1.42;;;;;;;28.59;61.01;102101.44;5273185;28;20426;-71
2022/05/18 10:44:20;;;;;;;5.28;2.03;;;;;;;28.57;58.93;102109.97;5272939;28;20359;-71
2022/05/18 10:46:51;;;;;;;6.03;1.80;;;;;;;28.34;59.95;102100.00;5266775;28;20024;-71
2022/05/18 10:49:29;;;;;;;3.83;1.50;;;;;;;28.47;59.14;102096.03;5280340;28;20499;-71
2022/05/18 10:52:22;;;;;;;1.65;1.33;;;;;;;28.41;64.48;102097.03;5266475;28;20032;-71
2022/05/18 10:54:56;;;;;;;4.50;1.90;;;;;;;28.98;57.07;102093.09;5266346;28;20020;-71
2022/05/18 10:57:34;;;;;;;3.92;1.20;;;;;;;28.88;59.06;102094.63;5280181;28;20028;-71
2022/05/18 11:00:25;;;;;;;2.33;1.33;;;;;;;29.08;58.19;102090.44;5266052;28;20099;-71
2022/05/18 11:03:31;;;;;;;4.05;1.35;;;;;;;28.78;60.71;102093.66;5274452;28;20114;-71
2022/05/18 11:06:37;;;;;;;8.38;1.80;;;;;;;29.02;61.77;102097.84;5268418;28;20055;-71
2022/05/18 11:09:33;;;;;;;3.97;1.60;;;;;;;29.19;56.54;102094.97;5282157;28;20038;-71
2022/05/18 11:12:14;;;;;;;2.28;1.33;;;;;;;29.08;63.13;102096.78;5282813;28;20038;-71
2022/05/18 11:15:04;;;;;;;4.00;1.60;;;;;;;29.36;58.21;102094.84;5281690;28;20339;-71
2022/05/18 11:18:04;;;;;;;6.20;1.92;;;;;;;29.24;56.39;102099.72;5274762;28;20488;-71
2022/05/18 11:20:49;;;;;;;5.82;1.92;;;;;;;28.90;58.49;102089.66;5273448;28;20472;-71
2022/05/18 11:23:20;;;;;;;2.15;1.38;;;;;;;28.47;62.01;102084.19;5287507;28;20269;-71
2022/05/18 11:26:27;;;;;;;3.63;1.55;;;;;;;28.67;63.10;102094.59;5286952;28;20026;-71
2022/05/18 11:29:15;;;;;;;5.35;1.60;;;;;;;28.67;61.17;102089.94;5274749;28;20035;-71
2022/05/18 11:31:46;;;;;;;5.20;1.60;;;;;;;28.65;62.45;102090.19;5287135;28;20072;-71
2022/05/18 11:34:39;;;;;;;4.45;1.63;;;;;;;28.92;58.97;102086.66;5287153;28;20027;-71
2022/05/18 11:37:30;;;;;;;8.18;1.63;;;;;;;28.90;58.92;102092.41;5277426;28;20020;-71
2022/05/18 11:40:37;;;;;;;6.78;1.95;;;;;;;28.99;57.92;102086.47;5265761;28;20028;-71
2022/05/18 11:43:45;;;;;;;5.05;2.00;;;;;;;28.41;62.58;102080.50;5279901;28;20059;-71
2022/05/18 11:46:33;;;;;;;5.25;1.75;;;;;;;28.43;63.50;102071.97;5284478;28;20447;-71
2022/05/18 11:49:17;;;;;;;5.72;2.15;;;;;;;29.05;60.10;102079.91;5272019;28;20016;-71
2022/05/18 11:52:15;;;;;;;2.78;1.77;;;;;;;29.01;59.49;102079.56;5276632;28;20504;-71
2022/05/18 11:54:54;;;;;;;4.20;1.90;;;;;;;28.90;68.76;102075.84;5287203;28;20061;-71
2022/05/18 11:58:02;;;;;;;7.75;1.85;;;;;;;28.85;64.86;102069.44;5273337;28;20437;-71
2022/05/18 12:00:45;;;;;;;5.13;1.73;;;;;;;29.26;58.72;102067.09;5284535;28;20023;-71
2022/05/18 12:03:53;;;;;;;3.80;1.50;;;;;;;29.13;60.56;102062.84;5277841;28;20093;-71
2022/05/18 12:07:01;;;;;;;3.30;1.80;;;;;;;28.86;62.60;102063.63;5276764;28;20024;-71
2022/05/18 12:09:47;;;;;;;5.78;2.03;;;;;;;29.21;57.03;102056.00;5275292;28;20030;-71
2022/05/18 12:12:36;;;;;;;;;;;;;;;29.13;60.71;102060.09;5273835;28;20031;-71
2022/05/18 12:15:31;;;;;;;6.40;1.40;;;;;;;29.51;58.88;102049.91;5280193;28;20006;-71